createdAt,value
2019-03-22T00:00:10.014Z,1026.19
2019-03-22T00:00:36.179Z,1026.2
2019-03-22T00:01:02.290Z,1026.2
2019-03-22T00:01:28.718Z,1026.21
2019-03-22T00:01:54.849Z,1026.21
2019-03-22T00:02:21.036Z,1026.21
2019-03-22T00:02:47.379Z,1026.18
2019-03-22T00:03:13.507Z,1026.16
2019-03-22T00:03:39.789Z,1026.16
2019-03-22T00:04:05.962Z,1026.15
2019-03-22T00:04:32.285Z,1026.11
2019-03-22T00:04:58.423Z,1026.12
2019-03-22T00:05:24.766Z,1026.13
2019-03-22T00:05:51.021Z,1026.11
2019-03-22T00:06:17.124Z,1026.11
2019-03-22T00:06:43.258Z,1026.11
2019-03-22T00:07:09.340Z,1026.12
2019-03-22T00:07:35.465Z,1026.11
2019-03-22T00:08:01.969Z,1026.12
2019-03-22T00:08:28.096Z,1026.11
2019-03-22T00:08:54.637Z,1026.1
2019-03-22T00:09:21.268Z,1026.08
2019-03-22T00:09:47.354Z,1026.11
2019-03-22T00:10:13.522Z,1026.13
2019-03-22T00:10:39.790Z,1026.14
2019-03-22T00:11:05.990Z,1026.12
2019-03-22T00:11:32.123Z,1026.15
2019-03-22T00:11:58.232Z,1026.14
2019-03-22T00:12:25.581Z,1026.15
2019-03-22T00:12:51.684Z,1026.16
2019-03-22T00:13:17.794Z,1026.08
2019-03-22T00:13:43.895Z,1026.08
2019-03-22T00:14:10.004Z,1026.11
2019-03-22T00:14:37.059Z,1026.07
2019-03-22T00:15:02.246Z,1026.07
2019-03-22T00:15:28.345Z,1026.06
2019-03-22T00:15:54.488Z,1026.07
2019-03-22T00:16:20.629Z,1026.05
2019-03-22T00:16:46.760Z,1026.01
2019-03-22T00:17:12.873Z,1026.05
2019-03-22T00:17:38.983Z,1026.04
2019-03-22T00:18:05.086Z,1026.03
2019-03-22T00:18:31.196Z,1026.04
2019-03-22T00:18:57.312Z,1026.07
2019-03-22T00:19:23.415Z,1026.07
2019-03-22T00:19:49.548Z,1026.09
2019-03-22T00:20:15.843Z,1026.04
2019-03-22T00:20:41.947Z,1026.06
2019-03-22T00:21:08.054Z,1026.1
2019-03-22T00:21:34.160Z,1026.13
2019-03-22T00:22:00.266Z,1026.09
2019-03-22T00:22:26.374Z,1026.1
2019-03-22T00:22:52.510Z,1026.13
2019-03-22T00:23:18.622Z,1026.14
2019-03-22T00:23:44.732Z,1026.15
2019-03-22T00:24:10.880Z,1026.18
2019-03-22T00:24:36.987Z,1026.18
2019-03-22T00:25:03.137Z,1026.15
2019-03-22T00:25:29.236Z,1026.12
2019-03-22T00:25:55.371Z,1026.14
2019-03-22T00:26:21.506Z,1026.13
2019-03-22T00:26:48.329Z,1026.16
2019-03-22T00:27:16.589Z,1026.11
2019-03-22T00:27:41.590Z,1026.12
2019-03-22T00:28:07.729Z,1026.11
2019-03-22T00:28:33.876Z,1026.09
2019-03-22T00:28:59.981Z,1026.11
2019-03-22T00:29:26.093Z,1026.11
2019-03-22T00:29:52.235Z,1026.08
2019-03-22T00:30:18.315Z,1026.06
2019-03-22T00:30:44.418Z,1026.1
2019-03-22T00:31:10.592Z,1026.08
2019-03-22T00:31:36.736Z,1026.05
2019-03-22T00:32:02.844Z,1026.03
2019-03-22T00:32:28.977Z,1026.05
2019-03-22T00:32:55.092Z,1026.05
2019-03-22T00:33:21.208Z,1026.07
2019-03-22T00:33:47.317Z,1026.09
2019-03-22T00:34:13.422Z,1026.09
2019-03-22T00:34:39.530Z,1026.07
2019-03-22T00:35:05.672Z,1026.11
2019-03-22T00:35:31.778Z,1026.12
2019-03-22T00:35:57.890Z,1026.11
2019-03-22T00:36:23.996Z,1026.11
2019-03-22T00:36:50.108Z,1026.13
2019-03-22T00:37:16.241Z,1026.14
2019-03-22T00:37:42.354Z,1026.12
2019-03-22T00:38:08.455Z,1026.14
2019-03-22T00:38:34.569Z,1026.1
2019-03-22T00:39:00.702Z,1026.14
2019-03-22T00:39:26.813Z,1026.1
2019-03-22T00:39:52.923Z,1026.12
2019-03-22T00:40:19.054Z,1026.11
2019-03-22T00:40:45.160Z,1026.08
2019-03-22T00:41:11.267Z,1026.11
2019-03-22T00:41:37.377Z,1026.11
2019-03-22T00:42:03.505Z,1026.08
2019-03-22T00:42:29.625Z,1026.09
2019-03-22T00:42:55.746Z,1026.09
2019-03-22T00:43:21.851Z,1026.08
2019-03-22T00:43:47.965Z,1026.08
2019-03-22T00:44:14.067Z,1026.08
2019-03-22T00:44:40.174Z,1026.08
2019-03-22T00:45:06.278Z,1026.07
2019-03-22T00:45:32.381Z,1026.07
2019-03-22T00:45:58.519Z,1026.06
2019-03-22T00:46:24.625Z,1026.08
2019-03-22T00:46:50.735Z,1026.06
2019-03-22T00:47:16.841Z,1026.1
2019-03-22T00:47:42.987Z,1026.03
2019-03-22T00:48:09.098Z,1026.06
2019-03-22T00:48:35.404Z,1026.03
2019-03-22T00:49:01.512Z,1026.03
2019-03-22T00:49:27.652Z,1026.05
2019-03-22T00:49:53.768Z,1026.04
2019-03-22T00:50:19.875Z,1026.05
2019-03-22T00:50:45.988Z,1026.06
2019-03-22T00:51:12.120Z,1026.08
2019-03-22T00:51:38.228Z,1026.07
2019-03-22T00:52:04.347Z,1026.09
2019-03-22T00:52:30.470Z,1026.11
2019-03-22T00:52:56.613Z,1026.1
2019-03-22T00:53:22.721Z,1026.07
2019-03-22T00:53:48.825Z,1026.09
2019-03-22T00:54:14.931Z,1026.08
2019-03-22T00:54:41.060Z,1026.07
2019-03-22T00:55:07.175Z,1026.06
2019-03-22T00:55:33.279Z,1026.09
2019-03-22T00:55:59.396Z,1026.06
2019-03-22T00:56:25.499Z,1026.06
2019-03-22T00:56:51.614Z,1026.13
2019-03-22T00:57:27.889Z,1026.07
2019-03-22T00:57:45.813Z,1026.08
2019-03-22T00:58:11.922Z,1026.06
2019-03-22T00:58:38.052Z,1026.1
2019-03-22T00:59:04.160Z,1026.08
2019-03-22T00:59:30.264Z,1026.1
2019-03-22T00:59:56.375Z,1026.06
2019-03-22T01:00:22.492Z,1026.09
2019-03-22T01:00:48.590Z,1026.07
2019-03-22T01:01:14.730Z,1026.08
2019-03-22T01:01:40.836Z,1026.08
2019-03-22T01:02:06.967Z,1026.09
2019-03-22T01:02:33.079Z,1026.04
2019-03-22T01:02:59.221Z,1026.05
2019-03-22T01:03:25.329Z,1026.02
2019-03-22T01:03:51.491Z,1026.02
2019-03-22T01:04:17.600Z,1026.04
2019-03-22T01:04:43.742Z,1026.04
2019-03-22T01:05:09.873Z,1026.04
2019-03-22T01:05:35.982Z,1026.01
2019-03-22T01:06:02.098Z,1026
2019-03-22T01:06:28.195Z,1026.01
2019-03-22T01:06:54.309Z,1026.01
2019-03-22T01:07:20.416Z,1026.02
2019-03-22T01:07:48.034Z,1026
2019-03-22T01:08:14.145Z,1026.01
2019-03-22T01:08:40.285Z,1026.04
2019-03-22T01:09:06.384Z,1026
2019-03-22T01:09:32.500Z,1025.98
2019-03-22T01:09:58.631Z,1026
2019-03-22T01:10:24.768Z,1026.01
2019-03-22T01:10:50.882Z,1025.99
2019-03-22T01:11:16.990Z,1025.96
2019-03-22T01:11:43.102Z,1025.95
2019-03-22T01:12:09.209Z,1025.96
2019-03-22T01:12:35.349Z,1025.96
2019-03-22T01:13:01.462Z,1025.96
2019-03-22T01:13:27.575Z,1025.94
2019-03-22T01:13:53.680Z,1025.93
2019-03-22T01:14:19.784Z,1025.92
2019-03-22T01:14:45.934Z,1025.93
2019-03-22T01:15:12.073Z,1025.94
2019-03-22T01:15:38.173Z,1025.92
2019-03-22T01:16:04.281Z,1025.92
2019-03-22T01:16:30.393Z,1025.91
2019-03-22T01:16:56.501Z,1025.88
2019-03-22T01:17:22.605Z,1025.89
2019-03-22T01:17:48.716Z,1025.89
2019-03-22T01:18:14.849Z,1025.86
2019-03-22T01:18:40.966Z,1025.9
2019-03-22T01:19:07.097Z,1025.92
2019-03-22T01:19:33.203Z,1025.87
2019-03-22T01:19:59.314Z,1025.87
2019-03-22T01:20:25.468Z,1025.88
2019-03-22T01:20:51.572Z,1025.89
2019-03-22T01:21:17.685Z,1025.89
2019-03-22T01:21:43.843Z,1025.86
2019-03-22T01:22:09.946Z,1025.87
2019-03-22T01:22:36.053Z,1025.88
2019-03-22T01:23:02.202Z,1025.89
2019-03-22T01:23:28.334Z,1025.87
2019-03-22T01:23:54.445Z,1025.88
2019-03-22T01:24:20.993Z,1025.85
2019-03-22T01:24:47.111Z,1025.92
2019-03-22T01:25:13.212Z,1025.91
2019-03-22T01:25:39.317Z,1025.89
2019-03-22T01:26:05.431Z,1025.89
2019-03-22T01:26:31.533Z,1025.9
2019-03-22T01:26:57.677Z,1025.9
2019-03-22T01:27:23.790Z,1025.89
2019-03-22T01:27:51.909Z,1025.91
2019-03-22T01:28:18.011Z,1025.92
2019-03-22T01:28:44.128Z,1025.97
2019-03-22T01:29:10.241Z,1025.94
2019-03-22T01:29:36.350Z,1025.91
2019-03-22T01:30:02.510Z,1025.94
2019-03-22T01:30:28.622Z,1025.93
2019-03-22T01:30:54.726Z,1025.93
2019-03-22T01:31:20.841Z,1025.94
2019-03-22T01:31:46.947Z,1025.94
2019-03-22T01:32:13.083Z,1025.93
2019-03-22T01:32:39.227Z,1025.9
2019-03-22T01:33:05.360Z,1025.94
2019-03-22T01:33:31.473Z,1025.94
2019-03-22T01:33:57.583Z,1025.92
2019-03-22T01:34:23.690Z,1025.93
2019-03-22T01:34:49.804Z,1025.94
2019-03-22T01:35:16.007Z,1025.93
2019-03-22T01:35:42.141Z,1025.91
2019-03-22T01:36:08.250Z,1025.94
2019-03-22T01:36:34.355Z,1025.92
2019-03-22T01:37:00.465Z,1025.92
2019-03-22T01:37:26.570Z,1025.9
2019-03-22T01:37:52.682Z,1025.93
2019-03-22T01:38:18.788Z,1025.93
2019-03-22T01:38:44.898Z,1025.93
2019-03-22T01:39:11.006Z,1025.93
2019-03-22T01:39:37.137Z,1025.92
2019-03-22T01:40:03.281Z,1025.96
2019-03-22T01:40:29.418Z,1025.92
2019-03-22T01:40:55.523Z,1025.9
2019-03-22T01:41:21.634Z,1025.94
2019-03-22T01:41:47.735Z,1025.92
2019-03-22T01:42:13.838Z,1025.94
2019-03-22T01:42:39.952Z,1025.93
2019-03-22T01:43:06.067Z,1025.88
2019-03-22T01:43:32.170Z,1025.94
2019-03-22T01:43:58.282Z,1025.9
2019-03-22T01:44:24.449Z,1025.87
2019-03-22T01:44:50.579Z,1025.9
2019-03-22T01:45:16.748Z,1025.9
2019-03-22T01:45:42.853Z,1025.9
2019-03-22T01:46:08.993Z,1025.91
2019-03-22T01:46:35.100Z,1025.89
2019-03-22T01:47:01.210Z,1025.9
2019-03-22T01:47:27.316Z,1025.93
2019-03-22T01:47:53.456Z,1025.92
2019-03-22T01:48:19.595Z,1025.95
2019-03-22T01:48:45.789Z,1025.93
2019-03-22T01:49:11.901Z,1025.92
2019-03-22T01:49:38.039Z,1025.91
2019-03-22T01:50:04.178Z,1025.9
2019-03-22T01:50:30.286Z,1025.9
2019-03-22T01:50:56.398Z,1025.87
2019-03-22T01:51:22.497Z,1025.92
2019-03-22T01:51:48.612Z,1025.95
2019-03-22T01:52:14.713Z,1025.89
2019-03-22T01:52:40.829Z,1025.9
2019-03-22T01:53:06.936Z,1025.88
2019-03-22T01:53:33.050Z,1025.88
2019-03-22T01:53:59.157Z,1025.92
2019-03-22T01:54:25.289Z,1025.91
2019-03-22T01:54:51.381Z,1025.89
2019-03-22T01:55:17.485Z,1025.89
2019-03-22T01:55:43.602Z,1025.89
2019-03-22T01:56:09.742Z,1025.88
2019-03-22T01:56:35.842Z,1025.86
2019-03-22T01:57:01.955Z,1025.86
2019-03-22T01:57:28.065Z,1025.85
2019-03-22T01:57:55.179Z,1025.83
2019-03-22T01:58:21.297Z,1025.89
2019-03-22T01:58:47.429Z,1025.87
2019-03-22T01:59:13.572Z,1025.87
2019-03-22T01:59:39.682Z,1025.86
2019-03-22T02:00:05.796Z,1025.91
2019-03-22T02:00:31.895Z,1025.87
2019-03-22T02:00:58.034Z,1025.87
2019-03-22T02:01:24.130Z,1025.83
2019-03-22T02:01:50.248Z,1025.84
2019-03-22T02:02:16.353Z,1025.85
2019-03-22T02:02:42.493Z,1025.86
2019-03-22T02:03:08.561Z,1025.84
2019-03-22T02:03:34.667Z,1025.82
2019-03-22T02:04:00.780Z,1025.84
2019-03-22T02:04:26.886Z,1025.81
2019-03-22T02:04:52.990Z,1025.82
2019-03-22T02:05:19.101Z,1025.82
2019-03-22T02:05:45.220Z,1025.8
2019-03-22T02:06:11.316Z,1025.79
2019-03-22T02:06:37.454Z,1025.76
2019-03-22T02:07:03.563Z,1025.76
2019-03-22T02:07:29.676Z,1025.75
2019-03-22T02:07:55.805Z,1025.73
2019-03-22T02:08:21.920Z,1025.77
2019-03-22T02:08:48.020Z,1025.77
2019-03-22T02:09:14.163Z,1025.74
2019-03-22T02:09:40.272Z,1025.73
2019-03-22T02:10:06.379Z,1025.71
2019-03-22T02:10:32.491Z,1025.69
2019-03-22T02:10:58.593Z,1025.69
2019-03-22T02:11:24.769Z,1025.68
2019-03-22T02:11:50.880Z,1025.67
2019-03-22T02:12:17.016Z,1025.69
2019-03-22T02:12:43.131Z,1025.61
2019-03-22T02:13:09.239Z,1025.67
2019-03-22T02:13:36.341Z,1025.65
2019-03-22T02:14:02.481Z,1025.64
2019-03-22T02:14:28.665Z,1025.68
2019-03-22T02:14:54.765Z,1025.61
2019-03-22T02:15:20.902Z,1025.65
2019-03-22T02:15:47.012Z,1025.62
2019-03-22T02:16:13.148Z,1025.64
2019-03-22T02:16:39.263Z,1025.66
2019-03-22T02:17:05.375Z,1025.66
2019-03-22T02:17:31.506Z,1025.65
2019-03-22T02:17:57.615Z,1025.66
2019-03-22T02:18:23.725Z,1025.67
2019-03-22T02:18:49.832Z,1025.65
2019-03-22T02:19:15.975Z,1025.66
2019-03-22T02:19:42.079Z,1025.66
2019-03-22T02:20:08.191Z,1025.68
2019-03-22T02:20:34.299Z,1025.65
2019-03-22T02:21:00.433Z,1025.67
2019-03-22T02:21:26.542Z,1025.69
2019-03-22T02:21:52.688Z,1025.64
2019-03-22T02:22:18.796Z,1025.64
2019-03-22T02:22:44.929Z,1025.67
2019-03-22T02:23:11.078Z,1025.64
2019-03-22T02:23:37.237Z,1025.68
2019-03-22T02:24:03.344Z,1025.66
2019-03-22T02:24:29.457Z,1025.66
2019-03-22T02:24:55.564Z,1025.64
2019-03-22T02:25:21.670Z,1025.64
2019-03-22T02:25:47.784Z,1025.64
2019-03-22T02:26:13.887Z,1025.68
2019-03-22T02:26:40.000Z,1025.67
2019-03-22T02:27:06.155Z,1025.69
2019-03-22T02:27:32.261Z,1025.69
2019-03-22T02:28:03.927Z,1025.71
2019-03-22T02:28:25.525Z,1025.68
2019-03-22T02:28:51.623Z,1025.71
2019-03-22T02:29:17.728Z,1025.7
2019-03-22T02:29:44.496Z,1025.71
2019-03-22T02:30:10.910Z,1025.73
2019-03-22T02:30:37.023Z,1025.72
2019-03-22T02:31:03.127Z,1025.66
2019-03-22T02:31:29.238Z,1025.7
2019-03-22T02:31:55.342Z,1025.71
2019-03-22T02:32:21.542Z,1025.69
2019-03-22T02:32:47.678Z,1025.67
2019-03-22T02:33:13.851Z,1025.66
2019-03-22T02:33:39.992Z,1025.63
2019-03-22T02:34:06.129Z,1025.65
2019-03-22T02:34:32.327Z,1025.65
2019-03-22T02:34:58.459Z,1025.63
2019-03-22T02:35:28.702Z,1025.64
2019-03-22T02:35:51.766Z,1025.64
2019-03-22T02:36:17.899Z,1025.65
2019-03-22T02:36:44.069Z,1025.65
2019-03-22T02:37:10.176Z,1025.65
2019-03-22T02:37:36.346Z,1025.64
2019-03-22T02:38:02.468Z,1025.6
2019-03-22T02:38:28.598Z,1025.61
2019-03-22T02:38:54.764Z,1025.58
2019-03-22T02:39:20.969Z,1025.63
2019-03-22T02:39:47.519Z,1025.6
2019-03-22T02:40:13.781Z,1025.58
2019-03-22T02:40:39.860Z,1025.62
2019-03-22T02:41:06.060Z,1025.58
2019-03-22T02:41:32.192Z,1025.59
2019-03-22T02:41:58.339Z,1025.62
2019-03-22T02:42:24.475Z,1025.58
2019-03-22T02:42:50.594Z,1025.59
2019-03-22T02:43:16.752Z,1025.58
2019-03-22T02:43:42.894Z,1025.58
2019-03-22T02:44:10.019Z,1025.6
2019-03-22T02:44:36.134Z,1025.6
2019-03-22T02:45:02.263Z,1025.6
2019-03-22T02:45:28.374Z,1025.59
2019-03-22T02:45:54.532Z,1025.58
2019-03-22T02:46:20.705Z,1025.61
2019-03-22T02:46:46.863Z,1025.6
2019-03-22T02:47:13.028Z,1025.61
2019-03-22T02:47:39.164Z,1025.61
2019-03-22T02:48:05.297Z,1025.57
2019-03-22T02:48:31.452Z,1025.56
2019-03-22T02:48:57.564Z,1025.54
2019-03-22T02:49:23.697Z,1025.56
2019-03-22T02:49:49.836Z,1025.54
2019-03-22T02:50:19.339Z,1025.55
2019-03-22T02:50:44.292Z,1025.53
2019-03-22T02:51:11.414Z,1025.54
2019-03-22T02:51:37.552Z,1025.58
2019-03-22T02:52:03.673Z,1025.53
2019-03-22T02:52:29.798Z,1025.54
2019-03-22T02:52:55.945Z,1025.53
2019-03-22T02:53:22.117Z,1025.53
2019-03-22T02:53:48.243Z,1025.51
2019-03-22T02:54:14.362Z,1025.51
2019-03-22T02:54:40.547Z,1025.5
2019-03-22T02:55:06.688Z,1025.54
2019-03-22T02:55:32.847Z,1025.5
2019-03-22T02:55:59.262Z,1025.48
2019-03-22T02:56:25.744Z,1025.52
2019-03-22T02:56:51.910Z,1025.49
2019-03-22T02:57:18.045Z,1025.49
2019-03-22T02:57:44.151Z,1025.53
2019-03-22T02:58:20.169Z,1025.51
2019-03-22T02:58:39.396Z,1025.52
2019-03-22T02:59:05.502Z,1025.5
2019-03-22T02:59:31.644Z,1025.53
2019-03-22T02:59:57.752Z,1025.49
2019-03-22T03:00:23.913Z,1025.52
2019-03-22T03:00:50.036Z,1025.52
2019-03-22T03:01:16.157Z,1025.5
2019-03-22T03:01:42.289Z,1025.52
2019-03-22T03:02:08.403Z,1025.5
2019-03-22T03:02:34.580Z,1025.52
2019-03-22T03:03:00.679Z,1025.55
2019-03-22T03:03:26.839Z,1025.53
2019-03-22T03:03:53.015Z,1025.51
2019-03-22T03:04:19.181Z,1025.56
2019-03-22T03:04:45.291Z,1025.52
2019-03-22T03:05:11.436Z,1025.53
2019-03-22T03:05:37.602Z,1025.54
2019-03-22T03:06:03.783Z,1025.53
2019-03-22T03:06:29.885Z,1025.57
2019-03-22T03:06:56.042Z,1025.53
2019-03-22T03:07:22.151Z,1025.5
2019-03-22T03:07:48.288Z,1025.5
2019-03-22T03:08:14.455Z,1025.51
2019-03-22T03:08:40.595Z,1025.5
2019-03-22T03:09:06.703Z,1025.53
2019-03-22T03:09:32.837Z,1025.52
2019-03-22T03:09:59.010Z,1025.54
2019-03-22T03:10:25.161Z,1025.54
2019-03-22T03:10:51.294Z,1025.54
2019-03-22T03:11:17.438Z,1025.52
2019-03-22T03:11:43.541Z,1025.53
2019-03-22T03:12:09.705Z,1025.52
2019-03-22T03:12:35.851Z,1025.53
2019-03-22T03:13:01.954Z,1025.5
2019-03-22T03:13:28.090Z,1025.54
2019-03-22T03:13:54.200Z,1025.48
2019-03-22T03:14:20.307Z,1025.49
2019-03-22T03:14:46.413Z,1025.48
2019-03-22T03:15:12.599Z,1025.45
2019-03-22T03:15:38.717Z,1025.47
2019-03-22T03:16:04.820Z,1025.46
2019-03-22T03:16:30.956Z,1025.46
2019-03-22T03:16:57.067Z,1025.46
2019-03-22T03:17:23.172Z,1025.44
2019-03-22T03:17:49.312Z,1025.45
2019-03-22T03:18:15.425Z,1025.44
2019-03-22T03:18:41.645Z,1025.42
2019-03-22T03:19:07.757Z,1025.43
2019-03-22T03:19:33.922Z,1025.44
2019-03-22T03:20:00.052Z,1025.42
2019-03-22T03:20:26.231Z,1025.42
2019-03-22T03:20:52.336Z,1025.41
2019-03-22T03:21:18.453Z,1025.46
2019-03-22T03:21:44.616Z,1025.42
2019-03-22T03:22:10.722Z,1025.38
2019-03-22T03:22:36.857Z,1025.38
2019-03-22T03:23:02.969Z,1025.41
2019-03-22T03:23:29.100Z,1025.38
2019-03-22T03:23:55.236Z,1025.41
2019-03-22T03:24:21.381Z,1025.4
2019-03-22T03:24:47.523Z,1025.38
2019-03-22T03:25:13.652Z,1025.35
2019-03-22T03:25:39.852Z,1025.36
2019-03-22T03:26:05.963Z,1025.37
2019-03-22T03:26:32.096Z,1025.35
2019-03-22T03:26:58.234Z,1025.37
2019-03-22T03:27:24.437Z,1025.35
2019-03-22T03:27:50.546Z,1025.38
2019-03-22T03:28:16.646Z,1025.35
2019-03-22T03:28:44.762Z,1025.36
2019-03-22T03:29:10.899Z,1025.38
2019-03-22T03:29:37.040Z,1025.4
2019-03-22T03:30:03.143Z,1025.38
2019-03-22T03:30:29.364Z,1025.38
2019-03-22T03:30:55.582Z,1025.34
2019-03-22T03:31:21.728Z,1025.38
2019-03-22T03:31:47.953Z,1025.36
2019-03-22T03:32:14.063Z,1025.37
2019-03-22T03:32:40.233Z,1025.32
2019-03-22T03:33:06.453Z,1025.38
2019-03-22T03:33:32.596Z,1025.35
2019-03-22T03:33:58.770Z,1025.36
2019-03-22T03:34:24.957Z,1025.36
2019-03-22T03:34:51.231Z,1025.35
2019-03-22T03:35:17.539Z,1025.33
2019-03-22T03:35:43.688Z,1025.33
2019-03-22T03:36:09.773Z,1025.31
2019-03-22T03:36:35.884Z,1025.27
2019-03-22T03:37:02.016Z,1025.31
2019-03-22T03:37:28.149Z,1025.26
2019-03-22T03:37:54.320Z,1025.28
2019-03-22T03:38:20.429Z,1025.25
2019-03-22T03:38:46.537Z,1025.24
2019-03-22T03:39:12.723Z,1025.24
2019-03-22T03:39:38.821Z,1025.22
2019-03-22T03:40:04.963Z,1025.22
2019-03-22T03:40:31.118Z,1025.16
2019-03-22T03:40:57.331Z,1025.21
2019-03-22T03:41:23.443Z,1025.2
2019-03-22T03:41:49.551Z,1025.17
2019-03-22T03:42:15.728Z,1025.18
2019-03-22T03:42:41.872Z,1025.18
2019-03-22T03:43:08.006Z,1025.17
2019-03-22T03:43:34.117Z,1025.13
2019-03-22T03:44:00.241Z,1025.14
2019-03-22T03:44:26.352Z,1025.18
2019-03-22T03:44:52.460Z,1025.16
2019-03-22T03:45:18.618Z,1025.14
2019-03-22T03:45:44.779Z,1025.14
2019-03-22T03:46:10.913Z,1025.17
2019-03-22T03:46:37.020Z,1025.16
2019-03-22T03:47:03.219Z,1025.16
2019-03-22T03:47:30.317Z,1025.16
2019-03-22T03:47:56.478Z,1025.16
2019-03-22T03:48:22.654Z,1025.17
2019-03-22T03:48:48.762Z,1025.18
2019-03-22T03:49:14.892Z,1025.17
2019-03-22T03:49:41.001Z,1025.19
2019-03-22T03:50:07.172Z,1025.15
2019-03-22T03:50:33.290Z,1025.17
2019-03-22T03:50:59.421Z,1025.18
2019-03-22T03:51:25.535Z,1025.18
2019-03-22T03:51:51.644Z,1025.22
2019-03-22T03:52:17.820Z,1025.21
2019-03-22T03:52:43.941Z,1025.19
2019-03-22T03:53:10.137Z,1025.19
2019-03-22T03:53:36.210Z,1025.22
2019-03-22T03:54:02.403Z,1025.21
2019-03-22T03:54:28.509Z,1025.24
2019-03-22T03:54:54.651Z,1025.25
2019-03-22T03:55:20.786Z,1025.19
2019-03-22T03:55:46.899Z,1025.22
2019-03-22T03:56:13.023Z,1025.2
2019-03-22T03:56:39.133Z,1025.22
2019-03-22T03:57:05.240Z,1025.22
2019-03-22T03:57:31.371Z,1025.19
2019-03-22T03:57:57.474Z,1025.18
2019-03-22T03:58:23.591Z,1025.2
2019-03-22T03:58:52.978Z,1025.22
2019-03-22T03:59:18.791Z,1025.21
2019-03-22T03:59:44.903Z,1025.24
2019-03-22T04:00:11.004Z,1025.18
2019-03-22T04:00:37.186Z,1025.16
2019-03-22T04:01:03.289Z,1025.21
2019-03-22T04:01:29.397Z,1025.15
2019-03-22T04:01:55.528Z,1025.16
2019-03-22T04:02:21.666Z,1025.19
2019-03-22T04:02:47.802Z,1025.19
2019-03-22T04:03:13.910Z,1025.17
2019-03-22T04:03:40.099Z,1025.19
2019-03-22T04:04:06.296Z,1025.13
2019-03-22T04:04:32.474Z,1025.15
2019-03-22T04:04:58.604Z,1025.13
2019-03-22T04:05:24.776Z,1025.17
2019-03-22T04:05:50.938Z,1025.14
2019-03-22T04:06:17.050Z,1025.17
2019-03-22T04:06:43.188Z,1025.1
2019-03-22T04:07:09.320Z,1025.1
2019-03-22T04:07:35.473Z,1025.13
2019-03-22T04:08:01.579Z,1025.1
2019-03-22T04:08:27.713Z,1025.1
2019-03-22T04:08:53.833Z,1025.1
2019-03-22T04:09:19.930Z,1025.08
2019-03-22T04:09:46.106Z,1025.05
2019-03-22T04:10:12.267Z,1025.06
2019-03-22T04:10:38.373Z,1025.08
2019-03-22T04:11:04.507Z,1025.04
2019-03-22T04:11:30.622Z,1025.06
2019-03-22T04:11:56.803Z,1025.02
2019-03-22T04:12:22.942Z,1025.04
2019-03-22T04:12:49.101Z,1025.04
2019-03-22T04:13:15.228Z,1025.04
2019-03-22T04:13:41.335Z,1025
2019-03-22T04:14:07.439Z,1025.01
2019-03-22T04:14:33.545Z,1025.02
2019-03-22T04:14:59.657Z,1025.03
2019-03-22T04:15:25.764Z,1025.04
2019-03-22T04:15:51.931Z,1025.03
2019-03-22T04:16:18.037Z,1025.03
2019-03-22T04:16:44.146Z,1025.05
2019-03-22T04:17:10.257Z,1025.1
2019-03-22T04:17:36.397Z,1025.03
2019-03-22T04:18:02.519Z,1025.06
2019-03-22T04:18:28.636Z,1025.06
2019-03-22T04:18:54.742Z,1025.08
2019-03-22T04:19:20.851Z,1025.06
2019-03-22T04:19:46.988Z,1025.06
2019-03-22T04:20:13.141Z,1025.06
2019-03-22T04:20:39.278Z,1025.1
2019-03-22T04:21:05.384Z,1025.09
2019-03-22T04:21:31.523Z,1025.08
2019-03-22T04:21:57.659Z,1025.1
2019-03-22T04:22:23.760Z,1025.08
2019-03-22T04:22:50.883Z,1025.08
2019-03-22T04:23:16.998Z,1025.1
2019-03-22T04:23:43.166Z,1025.1
2019-03-22T04:24:09.333Z,1025.09
2019-03-22T04:24:35.530Z,1025.09
2019-03-22T04:25:01.794Z,1025.11
2019-03-22T04:25:27.874Z,1025.08
2019-03-22T04:25:54.022Z,1025.07
2019-03-22T04:26:20.159Z,1025.11
2019-03-22T04:26:46.296Z,1025.06
2019-03-22T04:27:12.443Z,1025.07
2019-03-22T04:27:38.547Z,1025.07
2019-03-22T04:28:04.708Z,1025.07
2019-03-22T04:28:30.850Z,1025.04
2019-03-22T04:29:07.026Z,1025.08
2019-03-22T04:29:26.064Z,1025.04
2019-03-22T04:29:52.264Z,1025.05
2019-03-22T04:30:18.363Z,1025.06
2019-03-22T04:30:44.466Z,1025.06
2019-03-22T04:31:10.580Z,1025.06
2019-03-22T04:31:36.713Z,1025.03
2019-03-22T04:32:02.825Z,1025.06
2019-03-22T04:32:28.984Z,1025.04
2019-03-22T04:32:55.126Z,1025.01
2019-03-22T04:33:21.347Z,1025.03
2019-03-22T04:33:47.452Z,1025.03
2019-03-22T04:34:13.587Z,1025.01
2019-03-22T04:34:39.731Z,1025.02
2019-03-22T04:35:05.842Z,1024.99
2019-03-22T04:35:32.081Z,1025
2019-03-22T04:35:58.178Z,1025.03
2019-03-22T04:36:24.333Z,1025.01
2019-03-22T04:36:50.507Z,1024.97
2019-03-22T04:37:16.613Z,1024.98
2019-03-22T04:37:42.729Z,1024.97
2019-03-22T04:38:08.862Z,1025.01
2019-03-22T04:38:35.007Z,1025.01
2019-03-22T04:39:01.111Z,1024.97
2019-03-22T04:39:27.251Z,1024.99
2019-03-22T04:39:53.400Z,1024.96
2019-03-22T04:40:19.502Z,1024.98
2019-03-22T04:40:45.616Z,1024.95
2019-03-22T04:41:11.728Z,1024.98
2019-03-22T04:41:37.837Z,1024.98
2019-03-22T04:42:04.010Z,1025
2019-03-22T04:42:30.118Z,1024.98
2019-03-22T04:42:56.255Z,1024.98
2019-03-22T04:43:22.359Z,1025.02
2019-03-22T04:43:48.463Z,1024.96
2019-03-22T04:44:14.568Z,1024.97
2019-03-22T04:44:40.708Z,1025.02
2019-03-22T04:45:06.851Z,1024.95
2019-03-22T04:45:32.960Z,1024.99
2019-03-22T04:45:59.095Z,1024.95
2019-03-22T04:46:25.202Z,1024.96
2019-03-22T04:46:51.344Z,1024.95
2019-03-22T04:47:17.453Z,1024.98
2019-03-22T04:47:45.924Z,1024.96
2019-03-22T04:48:10.658Z,1024.95
2019-03-22T04:48:36.796Z,1024.93
2019-03-22T04:49:02.925Z,1024.97
2019-03-22T04:49:29.029Z,1024.96
2019-03-22T04:49:55.137Z,1025.01
2019-03-22T04:50:21.247Z,1024.98
2019-03-22T04:50:47.384Z,1025.01
2019-03-22T04:51:13.525Z,1025
2019-03-22T04:51:39.633Z,1024.98
2019-03-22T04:52:05.741Z,1024.98
2019-03-22T04:52:31.884Z,1024.97
2019-03-22T04:52:57.986Z,1024.97
2019-03-22T04:53:25.087Z,1024.98
2019-03-22T04:53:51.191Z,1024.95
2019-03-22T04:54:17.304Z,1024.94
2019-03-22T04:54:43.410Z,1024.95
2019-03-22T04:55:09.513Z,1024.96
2019-03-22T04:55:35.622Z,1024.92
2019-03-22T04:56:01.728Z,1024.94
2019-03-22T04:56:27.852Z,1024.91
2019-03-22T04:56:53.990Z,1024.92
2019-03-22T04:57:20.153Z,1024.94
2019-03-22T04:57:46.262Z,1024.89
2019-03-22T04:58:12.367Z,1024.88
2019-03-22T04:58:38.474Z,1024.91
2019-03-22T04:59:04.611Z,1024.91
2019-03-22T04:59:32.700Z,1024.87
2019-03-22T04:59:58.805Z,1024.88
2019-03-22T05:00:24.911Z,1024.91
2019-03-22T05:00:51.072Z,1024.89
2019-03-22T05:01:17.192Z,1024.9
2019-03-22T05:01:43.332Z,1024.89
2019-03-22T05:02:09.478Z,1024.91
2019-03-22T05:02:35.588Z,1024.9
2019-03-22T05:03:01.729Z,1024.92
2019-03-22T05:03:27.852Z,1024.96
2019-03-22T05:03:54.046Z,1024.97
2019-03-22T05:04:20.336Z,1024.93
2019-03-22T05:04:46.475Z,1024.96
2019-03-22T05:05:12.614Z,1024.94
2019-03-22T05:05:38.751Z,1024.94
2019-03-22T05:06:04.893Z,1024.96
2019-03-22T05:06:31.028Z,1024.98
2019-03-22T05:06:57.134Z,1024.97
2019-03-22T05:07:23.246Z,1025.03
2019-03-22T05:07:49.359Z,1024.99
2019-03-22T05:08:15.465Z,1024.97
2019-03-22T05:08:41.578Z,1025.01
2019-03-22T05:09:07.691Z,1024.98
2019-03-22T05:09:33.801Z,1024.98
2019-03-22T05:09:59.910Z,1024.97
2019-03-22T05:10:26.020Z,1024.99
2019-03-22T05:10:52.132Z,1025.02
2019-03-22T05:11:18.238Z,1025.02
2019-03-22T05:11:44.349Z,1024.99
2019-03-22T05:12:10.484Z,1025.02
2019-03-22T05:12:36.597Z,1024.99
2019-03-22T05:13:02.703Z,1024.98
2019-03-22T05:13:28.808Z,1025.01
2019-03-22T05:13:54.955Z,1025.01
2019-03-22T05:14:21.065Z,1025
2019-03-22T05:14:47.205Z,1024.99
2019-03-22T05:15:13.311Z,1025.02
2019-03-22T05:15:39.453Z,1025.05
2019-03-22T05:16:05.562Z,1025
2019-03-22T05:16:31.690Z,1025.01
2019-03-22T05:16:57.869Z,1025.01
2019-03-22T05:17:23.995Z,1024.99
2019-03-22T05:17:50.101Z,1025